Time,TemperatureF,DewpointF,PressureIn,WindDirection,WindDirectionDegrees,WindSpeedMPH,WindSpeedGustMPH,Humidity,HourlyPrecipIn,Conditions,Clouds,dailyrainin,SoftwareType,DateUTC
2013-01-29 00:00:00,70.1,69.2,29.95,SSE,152,8.0,20.0,97,0.00,,,0.00,VWS V14.01,2013-01-29 06:00:00,
2013-01-29 00:01:00,69.9,68.7,29.97,SSE,155,7.0,19.0,96,0.00,,,0.00,VWS V14.01,2013-01-29 06:01:00,
2013-01-29 00:06:00,70.0,68.8,29.96,SSE,157,11.0,19.0,96,0.00,,,0.00,Cumulus v1.9.2,2013-01-29 06:06:00,
2013-01-29 00:11:00,70.0,68.8,29.96,SSE,150,12.0,19.0,96,0.00,,,0.00,VWS V14.01,2013-01-29 06:11:00,
2013-01-29 00:16:00,70.0,68.8,29.96,SSE,148,9.0,19.0,96,0.00,,,0.00,VWS V14.01,2013-01-29 06:16:00,
2013-01-29 00:21:00,70.0,68.8,29.96,SSE,162,10.0,18.0,96,0.00,,,0.00,Cumulus v1.9.2,2013-01-29 06:21:00,
2013-01-29 00:26:00,70.0,68.8,29.96,SSE,163,14.0,19.0,96,0.00,,,0.00,VWS V14.01,2013-01-29 06:26:00,
2013-01-29 00:30:00,70.0,69.1,29.95,SSE,161,10.0,21.0,97,0.00,,,0.00,VWS V14.01,2013-01-29 06:30:00,
2013-01-29 00:31:00,70.0,68.8,29.95,SSE,160,11.0,19.0,96,0.00,,,0.00,Cumulus v1.9.2,2013-01-29 06:31:00,
2013-01-29 00:36:00,70.0,68.8,29.95,South,177,8.0,16.0,96,0.00,,,0.00,VWS V14.01,2013-01-29 06:36:00,
2013-01-29 00:41:00,70.0,68.8,29.96,SSE,161,11.0,21.0,96,0.00,,,0.00,Cumulus v1.9.2,2013-01-29 06:41:00,
2013-01-29 00:46:00,70.1,68.9,29.96,South,170,7.0,20.0,96,0.00,,,0.00,VWS V14.01,2013-01-29 06:46:00,
2013-01-29 00:51:00,70.1,69.2,29.96,South,171,4.0,20.0,97,0.00,,,0.00,VWS V14.01,2013-01-29 06:51:00,
2013-01-29 00:56:00,70.1,69.2,29.95,South,181,8.0,20.0,97,0.00,,,0.00,VWS V14.01,2013-01-29 06:56:00,
2013-01-29 01:00:00,70.2,69.3,29.94,ESE,117,19.0,22.0,97,0.00,,,0.00,VWS V14.01,2013-01-29 07:00:00,
2013-01-29 01:01:00,70.1,69.2,29.95,SSE,166,10.0,16.0,97,0.00,,,0.00,Cumulus v1.9.2,2013-01-29 07:01:00,
2013-01-29 01:06:00,70.0,69.1,29.95,SSE,159,9.0,17.0,97,0.00,,,0.00,Cumulus v1.9.2,2013-01-29 07:06:00,
2013-01-29 01:11:00,70.0,69.1,29.95,SSE,160,8.0,21.0,97,0.00,,,0.00,VWS V14.01,2013-01-29 07:11:00,
2013-01-29 01:16:00,70.0,69.1,29.95,SSE,159,16.0,21.0,97,0.00,,,0.00,VWS V14.01,2013-01-29 07:16:00,
2013-01-29 01:21:00,70.0,69.1,29.95,South,175,9.0,21.0,97,0.00,,,0.00,VWS V14.01,2013-01-29 07:21:00,
2013-01-29 01:26:00,70.0,69.1,29.95,SSE,157,12.0,21.0,97,0.00,,,0.00,VWS V14.01,2013-01-29 07:26:00,
2013-01-29 01:30:00,70.1,68.9,29.93,South,173,8.0,19.0,96,0.00,,,0.00,VWS V14.01,2013-01-29 07:30:00,
2013-01-29 01:31:00,70.0,69.1,29.95,SE,134,17.0,18.0,97,0.00,,,0.00,VWS V14.01,2013-01-29 07:31:00,
2013-01-29 01:36:00,70.1,69.2,29.94,SSE,157,16.0,18.0,97,0.00,,,0.00,VWS V14.01,2013-01-29 07:36:00,
2013-01-29 01:41:00,70.1,69.2,29.94,SE,143,4.0,18.0,97,0.00,,,0.00,VWS V14.01,2013-01-29 07:41:00,
2013-01-29 01:46:00,70.1,69.2,29.94,SSE,159,11.0,19.0,97,0.00,,,0.00,Cumulus v1.9.2,2013-01-29 07:46:00,
2013-01-29 01:51:00,70.2,69.3,29.94,SSE,160,12.0,19.0,97,0.00,,,0.00,VWS V14.01,2013-01-29 07:51:00,
2013-01-29 01:56:00,70.2,69.3,29.94,South,186,11.0,22.0,97,0.00,,,0.00,VWS V14.01,2013-01-29 07:56:00,
2013-01-29 02:00:00,70.2,69.0,29.92,South,169,10.0,20.0,96,0.00,,,0.00,VWS V14.01,2013-01-29 08:00:00,
2013-01-29 02:01:00,70.2,69.3,29.94,South,183,13.0,19.0,97,0.00,,,0.00,VWS V14.01,2013-01-29 08:01:00,
2013-01-29 02:06:00,70.2,69.3,29.94,SSE,148,11.0,19.0,97,0.00,,,0.00,VWS V14.01,2013-01-29 08:06:00,
2013-01-29 02:11:00,70.2,69.0,29.93,SE,144,10.0,19.0,96,0.00,,,0.00,VWS V14.01,2013-01-29 08:11:00,
2013-01-29 02:16:00,70.2,69.0,29.93,SSE,165,12.0,19.0,96,0.00,,,0.00,VWS V14.01,2013-01-29 08:16:00,
2013-01-29 02:21:00,70.2,69.0,29.93,SSE,164,10.0,18.0,96,0.00,,,0.00,Cumulus v1.9.2,2013-01-29 08:21:00,
2013-01-29 02:26:00,70.1,68.9,29.93,South,175,9.0,19.0,96,0.00,,,0.00,VWS V14.01,2013-01-29 08:26:00,
2013-01-29 02:30:00,70.5,69.3,29.91,SSE,166,12.0,19.0,96,0.00,,,0.00,VWS V14.01,2013-01-29 08:30:00,
2013-01-29 02:31:00,70.1,69.2,29.93,SSE,165,10.0,18.0,97,0.00,,,0.00,Cumulus v1.9.2,2013-01-29 08:31:00,
2013-01-29 02:36:00,70.2,69.3,29.93,SSE,155,7.0,16.0,97,0.00,,,0.00,VWS V14.01,2013-01-29 08:36:00,
2013-01-29 02:41:00,70.2,69.3,29.93,SSE,159,13.0,20.0,97,0.00,,,0.00,VWS V14.01,2013-01-29 08:41:00,
2013-01-29 02:46:00,70.2,69.3,29.93,SSE,160,10.0,20.0,97,0.00,,,0.00,VWS V14.01,2013-01-29 08:46:00,
2013-01-29 02:51:00,70.2,69.0,29.92,SSE,165,9.0,20.0,96,0.00,,,0.00,VWS V14.01,2013-01-29 08:51:00,
2013-01-29 02:56:00,70.2,69.0,29.92,SSE,162,12.0,19.0,96,0.00,,,0.00,Cumulus v1.9.2,2013-01-29 08:56:00,
2013-01-29 03:00:00,70.6,69.4,29.89,SSE,163,10.0,20.0,96,0.00,,,0.00,VWS V14.01,2013-01-29 09:00:00,
2013-01-29 03:01:00,70.2,69.0,29.92,South,169,12.0,19.0,96,0.00,,,0.00,VWS V14.01,2013-01-29 09:01:00,
2013-01-29 03:06:00,70.2,69.0,29.92,South,189,10.0,19.0,96,0.00,,,0.00,VWS V14.01,2013-01-29 09:06:00,
2013-01-29 03:11:00,70.3,69.1,29.92,South,169,8.0,19.0,96,0.00,,,0.00,VWS V14.01,2013-01-29 09:11:00,
2013-01-29 03:16:00,70.3,69.1,29.92,ESE,119,9.0,19.0,96,0.00,,,0.00,VWS V14.01,2013-01-29 09:16:00,
2013-01-29 03:21:00,70.4,69.2,29.92,SSE,167,12.0,19.0,96,0.00,,,0.00,VWS V14.01,2013-01-29 09:21:00,
2013-01-29 03:26:00,70.4,69.2,29.92,South,171,9.0,19.0,96,0.00,,,0.00,VWS V14.01,2013-01-29 09:26:00,
2013-01-29 03:30:00,70.8,69.6,29.87,South,182,15.0,24.0,96,0.00,,,0.00,VWS V14.01,2013-01-29 09:30:00,
2013-01-29 03:31:00,70.5,69.3,29.91,ESE,117,8.0,15.0,96,0.00,,,0.00,VWS V14.01,2013-01-29 09:31:00,
2013-01-29 03:36:00,70.5,69.3,29.91,SSE,155,11.0,17.0,96,0.00,,,0.00,VWS V14.01,2013-01-29 09:36:00,
2013-01-29 03:41:00,70.6,69.4,29.91,SSE,163,10.0,20.0,96,0.00,,,0.00,Cumulus v1.9.2,2013-01-29 09:41:00,
2013-01-29 03:46:00,70.6,69.4,29.90,SSE,163,10.0,20.0,96,0.00,,,0.00,Cumulus v1.9.2,2013-01-29 09:46:00,
2013-01-29 03:51:00,70.6,69.4,29.90,SSE,157,7.0,20.0,96,0.00,,,0.00,VWS V14.01,2013-01-29 09:51:00,
2013-01-29 03:56:00,70.6,69.4,29.89,SSE,157,2.0,20.0,96,0.00,,,0.00,VWS V14.01,2013-01-29 09:56:00,
2013-01-29 04:00:00,70.8,69.6,29.88,South,184,5.0,26.0,96,0.00,,,0.00,VWS V14.01,2013-01-29 10:00:00,
2013-01-29 04:01:00,70.6,69.4,29.89,SSE,163,10.0,14.0,96,0.00,,,0.00,VWS V14.01,2013-01-29 10:01:00,
2013-01-29 04:06:00,70.7,69.5,29.89,SSE,153,18.0,21.0,96,0.00,,,0.00,VWS V14.01,2013-01-29 10:06:00,
2013-01-29 04:11:00,70.7,69.5,29.88,SSE,158,12.0,21.0,96,0.00,,,0.00,Cumulus v1.9.2,2013-01-29 10:11:00,
2013-01-29 04:16:00,70.7,69.5,29.88,South,175,19.0,21.0,96,0.00,,,0.00,VWS V14.01,2013-01-29 10:16:00,
2013-01-29 04:21:00,70.7,69.5,29.88,South,174,18.0,21.0,96,0.00,,,0.00,VWS V14.01,2013-01-29 10:21:00,
2013-01-29 04:26:00,70.7,69.5,29.87,SSE,162,13.0,24.0,96,0.00,,,0.00,Cumulus v1.9.2,2013-01-29 10:26:00,
2013-01-29 04:30:00,70.6,69.1,29.86,SE,132,8.0,23.0,95,0.00,,,0.00,VWS V14.01,2013-01-29 10:30:00,
2013-01-29 04:31:00,70.8,69.6,29.87,SSE,148,18.0,19.0,96,0.00,,,0.00,VWS V14.01,2013-01-29 10:31:00,
2013-01-29 04:36:00,70.8,69.6,29.88,SSE,149,20.0,26.0,96,0.00,,,0.00,VWS V14.01,2013-01-29 10:36:00,
2013-01-29 04:41:00,70.8,69.6,29.88,South,176,11.0,26.0,96,0.00,,,0.00,VWS V14.01,2013-01-29 10:41:00,
2013-01-29 04:46:00,70.8,69.6,29.88,South,173,7.0,26.0,96,0.00,,,0.00,VWS V14.01,2013-01-29 10:46:00,
2013-01-29 04:51:00,70.9,69.7,29.88,South,183,12.0,26.0,96,0.00,,,0.00,VWS V14.01,2013-01-29 10:51:00,
2013-01-29 04:56:00,70.9,69.7,29.88,SSE,162,13.0,22.0,96,0.00,,,0.00,Cumulus v1.9.2,2013-01-29 10:56:00,
2013-01-29 05:00:00,70.3,68.8,29.86,SE,136,14.0,21.0,95,0.00,,,0.00,VWS V14.01,2013-01-29 11:00:00,
2013-01-29 05:01:00,70.9,69.7,29.88,SSE,151,16.0,16.0,96,0.00,,,0.00,VWS V14.01,2013-01-29 11:01:00,
2013-01-29 05:06:00,70.8,69.6,29.87,South,188,7.0,17.0,96,0.00,,,0.00,VWS V14.01,2013-01-29 11:06:00,
2013-01-29 05:11:00,70.8,69.6,29.87,SSE,151,14.0,19.0,96,0.00,,,0.00,VWS V14.01,2013-01-29 11:11:00,
2013-01-29 05:16:00,70.7,69.5,29.87,SSE,150,6.0,20.0,96,0.00,,,0.00,VWS V14.01,2013-01-29 11:16:00,
2013-01-29 05:21:00,70.7,69.2,29.87,SSE,158,14.0,23.0,95,0.00,,,0.00,VWS V14.01,2013-01-29 11:21:00,
2013-01-29 05:26:00,70.7,69.2,29.86,SSE,163,12.0,23.0,95,0.00,,,0.00,Cumulus v1.9.2,2013-01-29 11:26:00,
2013-01-29 05:30:00,70.3,68.8,29.88,South,171,10.0,19.0,95,0.00,,,0.00,VWS V14.01,2013-01-29 11:30:00,
2013-01-29 05:31:00,70.6,69.1,29.86,SSE,161,13.0,21.0,95,0.00,,,0.00,Cumulus v1.9.2,2013-01-29 11:31:00,
2013-01-29 05:36:00,70.6,69.1,29.86,SSE,148,8.0,16.0,95,0.00,,,0.00,VWS V14.01,2013-01-29 11:36:00,
2013-01-29 05:41:00,70.4,68.9,29.86,SSE,148,9.0,21.0,95,0.00,,,0.00,VWS V14.01,2013-01-29 11:41:00,
2013-01-29 05:46:00,70.4,68.9,29.86,SSE,155,11.0,21.0,95,0.00,,,0.00,Cumulus v1.9.2,2013-01-29 11:46:00,
2013-01-29 05:51:00,70.3,68.8,29.86,SSE,155,14.0,21.0,95,0.00,,,0.00,VWS V14.01,2013-01-29 11:51:00,
2013-01-29 05:56:00,70.3,68.8,29.86,SE,144,10.0,21.0,95,0.00,,,0.00,VWS V14.01,2013-01-29 11:56:00,
2013-01-29 06:00:00,70.2,68.7,29.88,SE,134,13.0,19.0,95,0.00,,,0.00,VWS V14.01,2013-01-29 12:00:00,
2013-01-29 06:01:00,70.2,68.7,29.85,SE,146,8.0,17.0,95,0.00,,,0.00,VWS V14.01,2013-01-29 12:01:00,
2013-01-29 06:06:00,70.2,68.7,29.86,SSE,153,14.0,19.0,95,0.00,,,0.00,VWS V14.01,2013-01-29 12:06:00,
2013-01-29 06:11:00,70.2,68.7,29.86,South,180,16.0,19.0,95,0.00,,,0.00,VWS V14.01,2013-01-29 12:11:00,
2013-01-29 06:16:00,70.2,68.7,29.87,SSE,156,11.0,17.0,95,0.00,,,0.00,Cumulus v1.9.2,2013-01-29 12:16:00,
2013-01-29 06:21:00,70.2,68.7,29.87,SSE,160,10.0,17.0,95,0.00,,,0.00,Cumulus v1.9.2,2013-01-29 12:21:00,
2013-01-29 06:26:00,70.2,68.7,29.88,SSE,160,6.0,19.0,95,0.00,,,0.00,VWS V14.01,2013-01-29 12:26:00,
2013-01-29 06:30:00,70.1,68.6,29.87,SE,144,11.0,21.0,95,0.00,,,0.00,VWS V14.01,2013-01-29 12:30:00,
2013-01-29 06:31:00,70.3,68.8,29.88,SSE,160,8.0,12.0,95,0.00,,,0.00,VWS V14.01,2013-01-29 12:31:00,
2013-01-29 06:36:00,70.3,68.8,29.88,SSE,165,9.0,16.0,95,0.00,,,0.00,Cumulus v1.9.2,2013-01-29 12:36:00,
2013-01-29 06:41:00,70.3,68.8,29.88,SSE,162,9.0,16.0,95,0.00,,,0.00,Cumulus v1.9.2,2013-01-29 12:41:00,
2013-01-29 06:46:00,70.3,68.8,29.89,SSE,163,6.0,17.0,95,0.00,,,0.00,VWS V14.01,2013-01-29 12:46:00,
2013-01-29 06:51:00,70.3,68.8,29.89,South,170,7.0,17.0,95,0.00,,,0.00,VWS V14.01,2013-01-29 12:51:00,
2013-01-29 06:56:00,70.2,68.7,29.88,SSE,148,7.0,17.0,95,0.00,,,0.00,VWS V14.01,2013-01-29 12:56:00,
2013-01-29 07:00:00,70.2,68.7,29.87,SSE,162,12.0,21.0,95,0.00,,,0.00,VWS V14.01,2013-01-29 13:00:00,
2013-01-29 07:01:00,70.2,68.7,29.87,SE,130,6.0,20.0,95,0.00,,,0.00,VWS V14.01,2013-01-29 13:01:00,
2013-01-29 07:06:00,70.1,68.6,29.88,South,173,15.0,21.0,95,0.00,,,0.00,VWS V14.01,2013-01-29 13:06:00,
2013-01-29 07:11:00,70.1,68.6,29.88,SSE,149,12.0,21.0,95,0.00,,,0.00,Cumulus v1.9.2,2013-01-29 13:11:00,
2013-01-29 07:16:00,70.1,68.6,29.88,SSE,155,8.0,21.0,95,0.00,,,0.00,VWS V14.01,2013-01-29 13:16:00,
2013-01-29 07:21:00,70.0,68.5,29.87,SE,139,9.0,21.0,95,0.00,,,0.00,VWS V14.01,2013-01-29 13:21:00,
2013-01-29 07:26:00,70.1,68.6,29.87,SSE,147,9.0,21.0,95,0.00,,,0.00,VWS V14.01,2013-01-29 13:26:00,
2013-01-29 07:30:00,70.6,68.8,29.87,SSE,165,8.0,17.0,94,0.00,,,0.00,VWS V14.01,2013-01-29 13:30:00,
2013-01-29 07:31:00,70.1,68.6,29.87,SE,146,7.0,17.0,95,0.00,,,0.00,VWS V14.01,2013-01-29 13:31:00,
2013-01-29 07:36:00,70.1,68.6,29.87,SSE,154,11.0,18.0,95,0.00,,,0.00,Cumulus v1.9.2,2013-01-29 13:36:00,
2013-01-29 07:41:00,70.1,68.6,29.87,SSE,161,10.0,17.0,95,0.00,,,0.00,VWS V14.01,2013-01-29 13:41:00,
2013-01-29 07:46:00,70.1,68.6,29.87,SSE,163,11.0,17.0,95,0.00,,,0.00,VWS V14.01,2013-01-29 13:46:00,
2013-01-29 07:51:00,70.1,68.6,29.86,SSE,158,10.0,22.0,95,0.00,,,0.00,Cumulus v1.9.2,2013-01-29 13:51:00,
2013-01-29 07:56:00,70.1,68.6,29.87,SSE,168,13.0,21.0,95,0.00,,,0.00,VWS V14.01,2013-01-29 13:56:00,
2013-01-29 08:00:00,71.4,69.3,29.87,South,185,10.0,21.0,93,0.00,,,0.00,VWS V14.01,2013-01-29 14:00:00,
2013-01-29 08:01:00,70.2,68.7,29.86,SSE,162,11.0,18.0,95,0.00,,,0.00,Cumulus v1.9.2,2013-01-29 14:01:00,
2013-01-29 08:06:00,70.2,68.7,29.86,South,169,15.0,16.0,95,0.00,,,0.00,VWS V14.01,2013-01-29 14:06:00,
2013-01-29 08:11:00,70.3,68.8,29.87,SSE,164,4.0,16.0,95,0.00,,,0.00,VWS V14.01,2013-01-29 14:11:00,
2013-01-29 08:16:00,70.3,68.8,29.87,SSW,196,9.0,17.0,95,0.00,,,0.00,VWS V14.01,2013-01-29 14:16:00,
2013-01-29 08:21:00,70.4,68.6,29.87,South,173,9.0,17.0,94,0.00,,,0.00,VWS V14.01,2013-01-29 14:21:00,
2013-01-29 08:26:00,70.4,68.6,29.87,SSE,154,11.0,17.0,94,0.00,,,0.00,VWS V14.01,2013-01-29 14:26:00,
2013-01-29 08:30:00,71.9,69.4,29.87,SSE,147,12.0,21.0,92,0.00,,,0.00,VWS V14.01,2013-01-29 14:30:00,
2013-01-29 08:31:00,70.6,68.8,29.87,SSW,192,6.0,14.0,94,0.00,,,0.00,VWS V14.01,2013-01-29 14:31:00,
2013-01-29 08:36:00,70.7,68.9,29.87,SSE,165,9.0,15.0,94,0.00,,,0.00,Cumulus v1.9.2,2013-01-29 14:36:00,
2013-01-29 08:41:00,70.8,69.0,29.87,South,169,12.0,17.0,94,0.00,,,0.00,VWS V14.01,2013-01-29 14:41:00,
2013-01-29 08:46:00,71.0,69.2,29.87,South,183,11.0,21.0,94,0.00,,,0.00,VWS V14.01,2013-01-29 14:46:00,
2013-01-29 08:51:00,71.2,69.1,29.87,SSE,165,13.0,21.0,93,0.00,,,0.00,VWS V14.01,2013-01-29 14:51:00,
2013-01-29 08:56:00,71.2,69.1,29.87,SSE,167,10.0,21.0,93,0.00,,,0.00,VWS V14.01,2013-01-29 14:56:00,
2013-01-29 09:00:00,71.9,69.8,29.86,South,190,11.0,24.0,93,0.00,,,0.00,VWS V14.01,2013-01-29 15:00:00,
2013-01-29 09:01:00,71.4,69.6,29.88,South,191,7.0,13.0,94,0.00,,,0.00,VWS V14.01,2013-01-29 15:01:00,
2013-01-29 09:06:00,71.6,69.5,29.87,South,176,8.0,14.0,93,0.00,,,0.00,VWS V14.01,2013-01-29 15:06:00,
2013-01-29 09:11:00,71.7,69.6,29.88,SSE,168,14.0,16.0,93,0.00,,,0.00,VWS V14.01,2013-01-29 15:11:00,
2013-01-29 09:16:00,71.8,69.7,29.88,South,169,8.0,18.0,93,0.00,,,0.00,VWS V14.01,2013-01-29 15:16:00,
2013-01-29 09:21:00,71.9,69.4,29.88,South,177,11.0,18.0,92,0.00,,,0.00,VWS V14.01,2013-01-29 15:21:00,
2013-01-29 09:26:00,71.9,69.4,29.88,South,188,10.0,20.0,92,0.00,,,0.00,VWS V14.01,2013-01-29 15:26:00,
2013-01-29 09:31:00,72.0,69.6,29.87,South,169,6.0,12.0,92,0.00,,,0.00,VWS V14.01,2013-01-29 15:31:00,
2013-01-29 09:36:00,71.9,69.8,29.87,SSW,192,9.0,17.0,93,0.00,,,0.00,VWS V14.01,2013-01-29 15:36:00,
2013-01-29 09:41:00,71.9,69.8,29.87,SSE,161,14.0,20.0,93,0.00,,,0.00,VWS V14.01,2013-01-29 15:41:00,
2013-01-29 09:46:00,71.8,69.7,29.87,South,171,19.0,21.0,93,0.00,,,0.00,VWS V14.01,2013-01-29 15:46:00,
2013-01-29 09:51:00,71.7,69.6,29.86,SSW,193,8.0,21.0,93,0.00,,,0.00,VWS V14.01,2013-01-29 15:51:00,
2013-01-29 09:56:00,71.8,69.7,29.86,SSE,161,8.0,24.0,93,0.00,,,0.00,VWS V14.01,2013-01-29 15:56:00,
2013-01-29 10:00:00,74.4,70.6,29.82,South,169,21.0,29.0,88,0.00,,,0.00,VWS V14.01,2013-01-29 16:00:00,
2013-01-29 10:01:00,72.0,69.9,29.86,South,180,9.0,14.0,93,0.00,,,0.00,VWS V14.01,2013-01-29 16:01:00,
2013-01-29 10:06:00,72.1,70.0,29.86,South,169,13.0,21.0,93,0.00,,,0.00,VWS V14.01,2013-01-29 16:06:00,
2013-01-29 10:11:00,72.2,69.8,29.86,SSE,168,14.0,21.0,92,0.00,,,0.00,VWS V14.01,2013-01-29 16:11:00,
2013-01-29 10:16:00,72.4,69.9,29.86,South,178,10.0,18.0,92,0.00,,,0.00,Cumulus v1.9.2,2013-01-29 16:16:00,
2013-01-29 10:21:00,72.5,70.1,29.85,South,186,6.0,21.0,92,0.00,,,0.00,VWS V14.01,2013-01-29 16:21:00,
2013-01-29 10:26:00,72.7,70.2,29.85,South,190,7.0,21.0,92,0.00,,,0.00,VWS V14.01,2013-01-29 16:26:00,
2013-01-29 10:30:00,73.0,70.2,29.82,SSW,194,6.0,27.0,91,0.00,,,0.00,VWS V14.01,2013-01-29 16:30:00,
2013-01-29 10:31:00,73.0,70.2,29.84,SSE,162,21.0,21.0,91,0.00,,,0.00,VWS V14.01,2013-01-29 16:31:00,
2013-01-29 10:36:00,73.3,70.5,29.84,South,175,8.0,21.0,91,0.00,,,0.00,VWS V14.01,2013-01-29 16:36:00,
2013-01-29 10:40:00,73.5,70.4,29.84,SSE,157,19.0,24.0,90,0.00,,,0.00,VWS V14.01,2013-01-29 16:40:00,
2013-01-29 10:45:00,73.8,70.7,29.83,South,180,8.0,24.0,90,0.00,,,0.00,VWS V14.01,2013-01-29 16:45:00,
2013-01-29 10:50:00,74.1,70.7,29.83,SSW,200,7.0,25.0,89,0.00,,,0.00,VWS V14.01,2013-01-29 16:50:00,
2013-01-29 10:55:00,74.2,70.8,29.83,SSE,161,11.0,29.0,89,0.00,,,0.00,VWS V14.01,2013-01-29 16:55:00,
2013-01-29 11:00:00,74.4,70.6,29.83,SSE,159,15.0,25.0,88,0.00,,,0.00,VWS V14.01,2013-01-29 17:00:00,
2013-01-29 11:05:00,74.2,70.4,29.83,South,174,16.0,25.0,88,0.00,,,0.00,VWS V14.01,2013-01-29 17:05:00,
2013-01-29 11:10:00,73.9,70.5,29.83,South,178,15.0,25.0,89,0.00,,,0.00,Cumulus v1.9.2,2013-01-29 17:10:00,
2013-01-29 11:15:00,73.7,70.3,29.83,South,170,8.0,27.0,89,0.00,,,0.00,VWS V14.01,2013-01-29 17:15:00,
2013-01-29 11:20:00,73.5,70.4,29.83,South,183,12.0,25.0,90,0.00,,,0.00,Cumulus v1.9.2,2013-01-29 17:20:00,
2013-01-29 11:25:00,73.2,70.4,29.82,SSE,166,16.0,27.0,91,0.00,,,0.00,VWS V14.01,2013-01-29 17:25:00,
2013-01-29 11:30:00,72.9,70.4,29.82,South,172,13.0,13.0,92,0.00,,,0.00,VWS V14.01,2013-01-29 17:30:00,
2013-01-29 11:35:00,72.7,70.2,29.82,South,173,12.0,23.0,92,0.00,,,0.00,Cumulus v1.9.2,2013-01-29 17:35:00,
2013-01-29 11:40:00,72.7,70.2,29.81,SSE,162,15.0,23.0,92,0.00,,,0.00,VWS V14.01,2013-01-29 17:40:00,
2013-01-29 11:45:00,72.7,70.2,29.81,South,175,11.0,18.0,92,0.00,,,0.00,Cumulus v1.9.2,2013-01-29 17:45:00,
2013-01-29 11:50:00,72.7,70.2,29.80,South,173,8.0,23.0,92,0.00,,,0.00,VWS V14.01,2013-01-29 17:50:00,
2013-01-29 11:55:00,72.6,70.2,29.80,South,188,16.0,23.0,92,0.00,,,0.00,VWS V14.01,2013-01-29 17:55:00,
2013-01-29 12:00:00,72.5,70.1,29.80,South,180,7.0,13.0,92,0.00,,,0.00,VWS V14.01,2013-01-29 18:00:00,
2013-01-29 12:05:00,72.4,70.3,29.80,SSE,167,12.0,20.0,93,0.00,,,0.00,VWS V14.01,2013-01-29 18:05:00,
2013-01-29 12:10:00,72.4,69.9,29.79,SE,140,7.0,25.0,92,0.00,,,0.00,VWS V14.01,2013-01-29 18:10:00,
2013-01-29 12:15:00,72.6,70.1,29.78,South,170,13.0,26.0,92,0.00,,,0.00,Cumulus v1.9.2,2013-01-29 18:15:00,
2013-01-29 12:20:00,72.7,70.2,29.78,SSE,163,16.0,25.0,92,0.00,,,0.00,VWS V14.01,2013-01-29 18:20:00,
2013-01-29 12:25:00,72.9,70.4,29.77,South,182,17.0,25.0,92,0.00,,,0.00,VWS V14.01,2013-01-29 18:25:00,
2013-01-29 12:30:00,73.1,70.6,29.77,South,173,9.0,17.0,92,0.00,,,0.00,VWS V14.01,2013-01-29 18:30:00,
2013-01-29 12:35:00,73.3,70.5,29.76,South,170,9.0,18.0,91,0.00,,,0.00,VWS V14.01,2013-01-29 18:35:00,
2013-01-29 12:40:00,73.5,70.7,29.76,SSE,167,20.0,24.0,91,0.00,,,0.00,VWS V14.01,2013-01-29 18:40:00,
2013-01-29 12:45:00,73.4,70.6,29.76,SSE,153,10.0,24.0,91,0.00,,,0.00,VWS V14.01,2013-01-29 18:45:00,
2013-01-29 12:50:00,73.3,70.5,29.76,SSE,165,16.0,24.0,91,0.00,,,0.00,VWS V14.01,2013-01-29 18:50:00,
2013-01-29 12:55:00,73.3,70.5,29.75,South,169,14.0,24.0,91,0.00,,,0.00,VWS V14.01,2013-01-29 18:55:00,
2013-01-29 13:00:00,73.2,70.4,29.75,SSW,194,3.0,19.0,91,0.00,,,0.00,VWS V14.01,2013-01-29 19:00:00,
2013-01-29 13:05:00,73.2,70.4,29.75,South,174,13.0,25.0,91,0.00,,,0.00,Cumulus v1.9.2,2013-01-29 19:05:00,
2013-01-29 13:10:00,73.2,70.4,29.74,South,173,12.0,27.0,91,0.00,,,0.00,VWS V14.01,2013-01-29 19:10:00,
2013-01-29 13:15:00,73.3,70.5,29.74,South,179,13.0,23.0,91,0.00,,,0.00,Cumulus v1.9.2,2013-01-29 19:15:00,
2013-01-29 13:20:00,73.2,70.4,29.73,SSW,193,10.0,27.0,91,0.00,,,0.00,VWS V14.01,2013-01-29 19:20:00,
2013-01-29 13:25:00,73.2,70.4,29.73,SSE,165,12.0,27.0,91,0.00,,,0.00,VWS V14.01,2013-01-29 19:25:00,
2013-01-29 13:30:00,73.2,70.4,29.72,South,175,10.0,12.0,91,0.00,,,0.00,VWS V14.01,2013-01-29 19:30:00,
2013-01-29 13:35:00,73.2,70.4,29.72,South,177,12.0,26.0,91,0.00,,,0.00,Cumulus v1.9.2,2013-01-29 19:35:00,
2013-01-29 13:40:00,73.2,70.4,29.71,SSE,156,21.0,27.0,91,0.00,,,0.00,VWS V14.01,2013-01-29 19:40:00,
2013-01-29 13:45:00,73.3,70.5,29.71,South,175,14.0,27.0,91,0.00,,,0.00,Cumulus v1.9.2,2013-01-29 19:45:00,
2013-01-29 13:50:00,73.4,70.6,29.71,South,188,12.0,27.0,91,0.00,,,0.00,VWS V14.01,2013-01-29 19:50:00,
2013-01-29 13:55:00,73.6,70.8,29.71,SSW,196,6.0,27.0,91,0.00,,,0.00,VWS V14.01,2013-01-29 19:55:00,
2013-01-29 13:57:00,73.7,70.9,29.70,South,183,17.0,27.0,91,0.00,,,0.00,VWS V14.01,2013-01-29 19:57:00,
2013-01-29 14:00:00,73.6,70.5,29.68,South,169,17.0,29.0,90,0.00,,,0.00,VWS V14.01,2013-01-29 20:00:00,
2013-01-29 14:02:00,73.9,70.8,29.70,SW,214,18.0,22.0,90,0.00,,,0.00,VWS V14.01,2013-01-29 20:02:00,
2013-01-29 14:07:00,74.1,71.0,29.70,South,179,8.0,23.0,90,0.00,,,0.00,VWS V14.01,2013-01-29 20:07:00,
2013-01-29 14:12:00,74.2,71.1,29.70,South,175,22.0,24.0,90,0.00,,,0.00,VWS V14.01,2013-01-29 20:12:00,
2013-01-29 14:17:00,74.0,70.9,29.70,SE,144,11.0,26.0,90,0.00,,,0.00,VWS V14.01,2013-01-29 20:17:00,
2013-01-29 14:22:00,73.8,70.7,29.69,SSE,165,23.0,26.0,90,0.00,,,0.00,VWS V14.01,2013-01-29 20:22:00,
2013-01-29 14:27:00,73.7,70.6,29.69,South,169,23.0,26.0,90,0.00,,,0.00,VWS V14.01,2013-01-29 20:27:00,
2013-01-29 14:30:00,73.3,70.5,29.67,SSW,193,14.0,28.0,91,0.00,,,0.00,VWS V14.01,2013-01-29 20:30:00,
2013-01-29 14:32:00,73.7,70.6,29.68,South,189,10.0,21.0,90,0.00,,,0.00,VWS V14.01,2013-01-29 20:32:00,
2013-01-29 14:37:00,73.7,70.6,29.68,South,183,14.0,25.0,90,0.00,,,0.00,Cumulus v1.9.2,2013-01-29 20:37:00,
2013-01-29 14:42:00,73.6,70.5,29.68,South,181,14.0,25.0,90,0.00,,,0.00,Cumulus v1.9.2,2013-01-29 20:42:00,
2013-01-29 14:47:00,73.5,70.4,29.68,SSW,205,8.0,27.0,90,0.00,,,0.00,VWS V14.01,2013-01-29 20:47:00,
2013-01-29 14:52:00,73.5,70.4,29.68,SSE,165,18.0,27.0,90,0.00,,,0.00,VWS V14.01,2013-01-29 20:52:00,
2013-01-29 14:57:00,73.6,70.5,29.68,South,171,17.0,29.0,90,0.00,,,0.00,VWS V14.01,2013-01-29 20:57:00,
2013-01-29 15:00:00,73.1,70.3,29.65,SE,141,19.0,26.0,91,0.00,,,0.00,VWS V14.01,2013-01-29 21:00:00,
2013-01-29 15:02:00,73.6,70.5,29.67,South,176,14.0,29.0,90,0.00,,,0.00,Cumulus v1.9.2,2013-01-29 21:02:00,
2013-01-29 15:07:00,73.5,70.4,29.67,South,186,13.0,23.0,90,0.00,,,0.00,VWS V14.01,2013-01-29 21:07:00,
2013-01-29 15:12:00,73.3,70.2,29.67,SSE,165,10.0,23.0,90,0.00,,,0.00,VWS V14.01,2013-01-29 21:12:00,
2013-01-29 15:17:00,73.2,70.4,29.67,SSW,211,10.0,26.0,91,0.00,,,0.00,VWS V14.01,2013-01-29 21:17:00,
2013-01-29 15:22:00,73.2,70.4,29.67,SSW,196,15.0,28.0,91,0.00,,,0.00,VWS V14.01,2013-01-29 21:22:00,
2013-01-29 15:27:00,73.3,70.5,29.67,South,184,11.0,28.0,91,0.00,,,0.00,VWS V14.01,2013-01-29 21:27:00,
2013-01-29 15:30:00,72.9,70.4,29.66,South,178,9.0,26.0,92,0.00,,,0.00,VWS V14.01,2013-01-29 21:30:00,
2013-01-29 15:32:00,73.3,70.5,29.67,South,181,14.0,20.0,91,0.00,,,0.00,VWS V14.01,2013-01-29 21:32:00,
2013-01-29 15:37:00,73.3,70.5,29.67,South,180,11.0,21.0,91,0.00,,,0.00,VWS V14.01,2013-01-29 21:37:00,
2013-01-29 15:42:00,73.3,70.5,29.66,SSW,198,14.0,21.0,91,0.00,,,0.00,VWS V14.01,2013-01-29 21:42:00,
2013-01-29 15:47:00,73.2,70.4,29.66,SSE,157,26.0,26.0,91,0.00,,,0.00,VWS V14.01,2013-01-29 21:47:00,
2013-01-29 15:52:00,73.2,70.4,29.66,South,181,13.0,26.0,91,0.00,,,0.00,VWS V14.01,2013-01-29 21:52:00,
2013-01-29 15:57:00,73.2,70.4,29.65,SSW,194,7.0,26.0,91,0.00,,,0.00,VWS V14.01,2013-01-29 21:57:00,
2013-01-29 16:02:00,73.1,70.3,29.65,South,186,13.0,25.0,91,0.00,,,0.00,VWS V14.01,2013-01-29 22:02:00,
2013-01-29 16:07:00,73.1,70.6,29.65,SSW,207,7.0,26.0,92,0.00,,,0.00,VWS V14.01,2013-01-29 22:07:00,
2013-01-29 16:12:00,73.0,70.5,29.66,SW,231,7.0,26.0,92,0.00,,,0.00,VWS V14.01,2013-01-29 22:12:00,
2013-01-29 16:17:00,73.0,70.5,29.66,South,190,8.0,26.0,92,0.00,,,0.00,VWS V14.01,2013-01-29 22:17:00,
2013-01-29 16:22:00,72.9,70.4,29.66,South,178,12.0,26.0,92,0.00,,,0.00,VWS V14.01,2013-01-29 22:22:00,
2013-01-29 16:27:00,72.9,70.4,29.66,SSW,199,12.0,26.0,92,0.00,,,0.00,VWS V14.01,2013-01-29 22:27:00,
2013-01-29 16:30:00,73.1,70.3,29.65,South,191,16.0,23.0,91,0.00,,,0.00,VWS V14.01,2013-01-29 22:30:00,
2013-01-29 16:32:00,72.9,70.4,29.66,SSW,196,7.0,18.0,92,0.00,,,0.00,VWS V14.01,2013-01-29 22:32:00,
2013-01-29 16:37:00,72.9,70.4,29.66,SSW,193,7.0,21.0,92,0.00,,,0.00,VWS V14.01,2013-01-29 22:37:00,
2013-01-29 16:42:00,72.9,70.4,29.66,SSW,198,16.0,24.0,92,0.00,,,0.00,VWS V14.01,2013-01-29 22:42:00,
2013-01-29 16:47:00,72.9,70.4,29.66,SSW,205,10.0,24.0,92,0.00,,,0.00,VWS V14.01,2013-01-29 22:47:00,
2013-01-29 16:52:00,73.0,70.5,29.66,SSW,195,12.0,25.0,92,0.00,,,0.00,Cumulus v1.9.2,2013-01-29 22:52:00,
2013-01-29 16:57:00,73.0,70.5,29.66,SSE,167,11.0,24.0,92,0.00,,,0.00,VWS V14.01,2013-01-29 22:57:00,
2013-01-29 17:00:00,72.9,70.4,29.65,SW,220,22.0,23.0,92,0.00,,,0.00,VWS V14.01,2013-01-29 23:00:00,
2013-01-29 17:02:00,73.0,70.5,29.66,SSW,208,7.0,20.0,92,0.00,,,0.00,VWS V14.01,2013-01-29 23:02:00,
2013-01-29 17:06:00,73.0,70.5,29.66,SSW,207,9.0,20.0,92,0.00,,,0.00,VWS V14.01,2013-01-29 23:06:00,
2013-01-29 17:11:00,73.0,70.5,29.66,SSW,206,9.0,20.0,92,0.00,,,0.00,VWS V14.01,2013-01-29 23:11:00,
2013-01-29 17:16:00,73.1,70.6,29.65,South,181,17.0,21.0,92,0.00,,,0.00,VWS V14.01,2013-01-29 23:16:00,
2013-01-29 17:21:00,73.1,70.6,29.66,South,184,11.0,22.0,92,0.00,,,0.00,VWS V14.01,2013-01-29 23:21:00,
2013-01-29 17:26:00,73.1,70.3,29.65,SSW,195,13.0,23.0,91,0.00,,,0.00,Cumulus v1.9.2,2013-01-29 23:26:00,
2013-01-29 17:30:00,72.9,70.4,29.65,South,186,17.0,24.0,92,0.00,,,0.00,VWS V14.01,2013-01-29 23:30:00,
2013-01-29 17:32:00,73.2,70.4,29.65,SSW,195,13.0,23.0,91,0.00,,,0.00,Cumulus v1.9.2,2013-01-29 23:32:00,
2013-01-29 17:37:00,73.1,70.3,29.65,South,182,11.0,23.0,91,0.00,,,0.00,VWS V14.01,2013-01-29 23:37:00,
2013-01-29 17:41:00,73.1,70.3,29.65,SSW,212,7.0,23.0,91,0.00,,,0.00,VWS V14.01,2013-01-29 23:41:00,
2013-01-29 17:47:00,73.0,70.5,29.65,SSW,198,16.0,23.0,92,0.00,,,0.00,VWS V14.01,2013-01-29 23:47:00,
2013-01-29 17:51:00,73.0,70.5,29.65,SSW,194,12.0,23.0,92,0.00,,,0.00,Cumulus v1.9.2,2013-01-29 23:51:00,
2013-01-29 17:56:00,72.9,70.4,29.65,South,182,11.0,23.0,92,0.00,,,0.00,VWS V14.01,2013-01-29 23:56:00,
2013-01-29 18:00:00,72.8,70.3,29.64,SSW,209,13.0,26.0,92,0.00,,,0.00,VWS V14.01,2013-01-30 00:00:00,
2013-01-29 18:01:00,72.9,70.4,29.65,South,186,13.0,22.0,92,0.00,,,0.00,VWS V14.01,2013-01-30 00:01:00,
2013-01-29 18:07:00,72.9,70.4,29.65,SSW,195,12.0,22.0,92,0.00,,,0.00,Cumulus v1.9.2,2013-01-30 00:07:00,
2013-01-29 18:12:00,72.9,70.4,29.65,SSW,208,11.0,22.0,92,0.00,,,0.00,VWS V14.01,2013-01-30 00:12:00,
2013-01-29 18:17:00,72.8,70.3,29.65,SSE,157,14.0,22.0,92,0.00,,,0.00,VWS V14.01,2013-01-30 00:17:00,
2013-01-29 18:22:00,72.9,70.4,29.65,SSE,162,8.0,22.0,92,0.00,,,0.00,VWS V14.01,2013-01-30 00:22:00,
2013-01-29 18:27:00,72.9,70.4,29.65,SSE,162,13.0,22.0,92,0.00,,,0.00,VWS V14.01,2013-01-30 00:27:00,
2013-01-29 18:32:00,72.9,70.4,29.65,South,170,18.0,22.0,92,0.00,,,0.00,VWS V14.01,2013-01-30 00:32:00,
2013-01-29 18:37:00,72.9,70.4,29.65,SSW,202,16.0,22.0,92,0.00,,,0.00,VWS V14.01,2013-01-30 00:37:00,
2013-01-29 18:41:00,72.9,70.4,29.64,SSW,210,17.0,23.0,92,0.00,,,0.00,VWS V14.01,2013-01-30 00:41:00,
2013-01-29 18:46:00,72.9,70.4,29.64,SSW,209,13.0,23.0,92,0.00,,,0.00,VWS V14.01,2013-01-30 00:46:00,
2013-01-29 18:51:00,72.9,70.4,29.63,SSW,197,10.0,26.0,92,0.00,,,0.00,VWS V14.01,2013-01-30 00:51:00,
2013-01-29 18:56:00,72.8,70.3,29.64,South,183,13.0,26.0,92,0.00,,,0.00,Cumulus v1.9.2,2013-01-30 00:56:00,
2013-01-29 19:01:00,72.8,70.3,29.64,South,190,22.0,24.0,92,0.00,,,0.00,VWS V14.01,2013-01-30 01:01:00,
2013-01-29 19:06:00,72.8,70.3,29.64,South,170,17.0,24.0,92,0.00,,,0.00,VWS V14.01,2013-01-30 01:06:00,
2013-01-29 19:11:00,72.9,70.4,29.64,SW,217,15.0,24.0,92,0.00,,,0.00,VWS V14.01,2013-01-30 01:11:00,
2013-01-29 19:16:00,72.9,70.4,29.64,South,188,12.0,24.0,92,0.00,,,0.00,VWS V14.01,2013-01-30 01:16:00,
2013-01-29 19:21:00,72.9,70.4,29.64,South,184,11.0,24.0,92,0.00,,,0.00,VWS V14.01,2013-01-30 01:21:00,
2013-01-29 19:26:00,72.9,70.4,29.65,SSW,198,14.0,23.0,92,0.00,,,0.00,Cumulus v1.9.2,2013-01-30 01:26:00,
2013-01-29 19:31:00,72.8,70.3,29.65,SW,219,10.0,19.0,92,0.00,,,0.00,VWS V14.01,2013-01-30 01:31:00,
2013-01-29 19:36:00,72.8,70.3,29.65,SW,216,22.0,22.0,92,0.00,,,0.00,VWS V14.01,2013-01-30 01:36:00,
2013-01-29 19:41:00,72.7,70.2,29.65,SSW,196,8.0,22.0,92,0.00,,,0.00,VWS V14.01,2013-01-30 01:41:00,
2013-01-29 19:46:00,72.6,70.2,29.65,SSW,202,12.0,26.0,92,0.00,,,0.00,VWS V14.01,2013-01-30 01:46:00,
2013-01-29 19:51:00,72.6,70.2,29.66,South,188,9.0,26.0,92,0.00,,,0.00,VWS V14.01,2013-01-30 01:51:00,
2013-01-29 19:56:00,72.6,70.5,29.64,SSW,197,13.0,25.0,93,0.00,,,0.00,Cumulus v1.9.2,2013-01-30 01:56:00,
2013-01-29 20:00:00,72.6,70.2,29.65,SSW,209,10.0,29.0,92,0.00,,,0.00,VWS V14.01,2013-01-30 02:00:00,
2013-01-29 20:01:00,72.5,70.4,29.65,South,174,7.0,18.0,93,0.00,,,0.00,VWS V14.01,2013-01-30 02:01:00,
2013-01-29 20:06:00,72.5,70.4,29.65,SSW,213,12.0,22.0,93,0.00,,,0.00,VWS V14.01,2013-01-30 02:06:00,
2013-01-29 20:11:00,72.5,70.4,29.65,SW,215,15.0,23.0,93,0.00,,,0.00,VWS V14.01,2013-01-30 02:11:00,
2013-01-29 20:16:00,72.6,70.5,29.65,SSW,206,10.0,24.0,93,0.00,,,0.00,VWS V14.01,2013-01-30 02:16:00,
2013-01-29 20:21:00,72.6,70.5,29.64,SSW,197,12.0,24.0,93,0.00,,,0.00,Cumulus v1.9.2,2013-01-30 02:21:00,
2013-01-29 20:26:00,72.6,70.5,29.65,South,186,6.0,24.0,93,0.00,,,0.00,VWS V14.01,2013-01-30 02:26:00,
2013-01-29 20:30:00,72.6,70.2,29.65,SW,215,10.0,26.0,92,0.00,,,0.00,VWS V14.01,2013-01-30 02:30:00,
2013-01-29 20:31:00,72.6,70.5,29.65,South,174,17.0,17.0,93,0.00,,,0.00,VWS V14.01,2013-01-30 02:31:00,
2013-01-29 20:36:00,72.6,70.5,29.66,SSW,192,12.0,21.0,93,0.00,,,0.00,VWS V14.01,2013-01-30 02:36:00,
2013-01-29 20:41:00,72.6,70.5,29.65,SSW,200,13.0,22.0,93,0.00,,,0.00,Cumulus v1.9.2,2013-01-30 02:41:00,
2013-01-29 20:46:00,72.6,70.5,29.65,SSW,202,13.0,29.0,93,0.00,,,0.00,Cumulus v1.9.2,2013-01-30 02:46:00,
2013-01-29 20:51:00,72.6,70.2,29.66,SSW,200,8.0,29.0,92,0.00,,,0.00,VWS V14.01,2013-01-30 02:51:00,
2013-01-29 20:56:00,72.6,70.2,29.65,SW,217,10.0,29.0,92,0.00,,,0.00,VWS V14.01,2013-01-30 02:56:00,
2013-01-29 21:00:00,72.6,70.2,29.65,SSE,161,13.0,24.0,92,0.00,,,0.00,VWS V14.01,2013-01-30 03:00:00,
2013-01-29 21:01:00,72.6,70.1,29.65,SSW,199,12.0,23.0,92,0.00,,,0.00,Cumulus v1.9.2,2013-01-30 03:01:00,
2013-01-29 21:06:00,72.6,70.2,29.66,SSW,194,14.0,23.0,92,0.00,,,0.00,VWS V14.01,2013-01-30 03:06:00,
2013-01-29 21:11:00,72.6,70.1,29.65,SSW,200,12.0,22.0,92,0.00,,,0.00,Cumulus v1.9.2,2013-01-30 03:11:00,
2013-01-29 21:16:00,72.6,70.2,29.65,SW,223,17.0,26.0,92,0.00,,,0.00,VWS V14.01,2013-01-30 03:16:00,
2013-01-29 21:21:00,72.6,70.2,29.65,South,181,17.0,26.0,92,0.00,,,0.00,VWS V14.01,2013-01-30 03:21:00,
2013-01-29 21:26:00,72.5,70.1,29.65,SSW,213,11.0,26.0,92,0.00,,,0.00,VWS V14.01,2013-01-30 03:26:00,
2013-01-29 21:30:00,72.8,70.3,29.67,SW,223,8.0,23.0,92,0.00,,,0.00,VWS V14.01,2013-01-30 03:30:00,
2013-01-29 21:31:00,72.6,70.2,29.65,SSW,206,9.0,17.0,92,0.00,,,0.00,VWS V14.01,2013-01-30 03:31:00,
2013-01-29 21:36:00,72.6,70.2,29.65,SSW,205,10.0,23.0,92,0.00,,,0.00,VWS V14.01,2013-01-30 03:36:00,
2013-01-29 21:41:00,72.6,70.1,29.65,SSW,199,13.0,23.0,92,0.00,,,0.00,Cumulus v1.9.2,2013-01-30 03:41:00,
2013-01-29 21:46:00,72.6,70.2,29.65,SSW,197,12.0,23.0,92,0.00,,,0.00,VWS V14.01,2013-01-30 03:46:00,
2013-01-29 21:51:00,72.6,70.2,29.65,South,186,15.0,24.0,92,0.00,,,0.00,VWS V14.01,2013-01-30 03:51:00,
2013-01-29 21:56:00,72.6,70.2,29.65,SSW,194,8.0,24.0,92,0.00,,,0.00,VWS V14.01,2013-01-30 03:56:00,
2013-01-29 22:00:00,68.0,63.3,29.74,NW,309,8.0,33.0,85,0.02,,,0.02,VWS V14.01,2013-01-30 04:00:00,
2013-01-29 22:01:00,72.6,70.2,29.65,SSW,202,17.0,20.0,92,0.00,,,0.00,VWS V14.01,2013-01-30 04:01:00,
2013-01-29 22:06:00,72.6,70.2,29.65,SSW,204,15.0,21.0,92,0.00,,,0.00,VWS V14.01,2013-01-30 04:06:00,
2013-01-29 22:11:00,72.6,70.2,29.65,SW,236,15.0,23.0,92,0.00,,,0.00,VWS V14.01,2013-01-30 04:11:00,
2013-01-29 22:16:00,72.7,70.2,29.66,SW,227,18.0,23.0,92,0.00,,,0.00,VWS V14.01,2013-01-30 04:16:00,
2013-01-29 22:21:00,72.7,70.2,29.66,SSW,212,20.0,23.0,92,0.00,,,0.00,VWS V14.01,2013-01-30 04:21:00,
2013-01-29 22:26:00,72.7,70.2,29.66,SSW,209,13.0,23.0,92,0.00,,,0.00,Cumulus v1.9.2,2013-01-30 04:26:00,
2013-01-29 22:30:00,61.4,57.8,29.74,NNW,335,4.0,20.0,88,0.06,,,0.06,VWS V14.01,2013-01-30 04:30:00,
2013-01-29 22:31:00,72.8,70.3,29.68,SW,227,8.0,21.0,92,0.00,,,0.00,VWS V14.01,2013-01-30 04:31:00,
2013-01-29 22:36:00,73.0,70.5,29.70,SW,234,14.0,22.0,92,0.00,,,0.00,Cumulus v1.9.2,2013-01-30 04:36:00,
2013-01-29 22:41:00,73.1,70.6,29.70,West,266,13.0,21.0,92,0.00,,,0.00,VWS V14.01,2013-01-30 04:41:00,
2013-01-29 22:46:00,73.3,70.8,29.71,WSW,248,12.0,20.0,92,0.00,,,0.00,Cumulus v1.9.2,2013-01-30 04:46:00,
2013-01-29 22:51:00,72.1,65.6,29.73,WNW,294,7.0,33.0,80,0.00,,,0.00,VWS V14.01,2013-01-30 04:51:00,
2013-01-29 22:56:00,69.6,64.2,29.73,NNW,331,12.0,33.0,83,0.00,,,0.00,VWS V14.01,2013-01-30 04:56:00,
2013-01-29 23:00:00,68.0,63.3,29.74,NW,304,14.0,24.0,85,0.02,,,0.02,Cumulus v1.9.2,2013-01-30 05:00:00,
2013-01-29 23:01:00,67.7,63.4,29.74,NW,313,9.0,12.0,86,0.03,,,0.03,VWS V14.01,2013-01-30 05:01:00,
2013-01-29 23:03:00,66.9,62.9,29.74,NW,304,6.0,19.0,87,0.03,,,0.03,VWS V14.01,2013-01-30 05:03:00,
2013-01-29 23:08:00,65.4,62.4,29.74,NW,324,12.0,19.0,90,0.05,,,0.05,VWS V14.01,2013-01-30 05:08:00,
2013-01-29 23:13:00,64.0,60.7,29.74,NNW,338,13.0,20.0,89,0.05,,,0.05,VWS V14.01,2013-01-30 05:13:00,
2013-01-29 23:18:00,63.0,59.4,29.74,NW,322,13.0,20.0,88,0.05,,,0.05,VWS V14.01,2013-01-30 05:18:00,
2013-01-29 23:23:00,62.3,58.4,29.74,NNW,341,9.0,20.0,87,0.06,,,0.06,VWS V14.01,2013-01-30 05:23:00,
2013-01-29 23:28:00,61.6,57.7,29.74,NNW,331,5.0,20.0,87,0.06,,,0.06,VWS V14.01,2013-01-30 05:28:00,
2013-01-29 23:30:00,60.1,56.5,29.76,NNW,336,5.0,10.0,88,0.04,,,0.00,VWS V14.01,2013-01-30 05:30:00,
2013-01-29 23:33:00,61.1,57.5,29.75,NNW,336,4.0,6.0,88,0.06,,,0.06,VWS V14.01,2013-01-30 05:33:00,
2013-01-29 23:38:00,60.8,57.2,29.75,NNW,341,6.0,11.0,88,0.06,,,0.06,Cumulus v1.9.2,2013-01-30 05:38:00,
2013-01-29 23:43:00,60.5,56.6,29.75,NNW,348,0.0,11.0,87,0.06,,,0.06,VWS V14.01,2013-01-30 05:43:00,
2013-01-29 23:48:00,60.4,56.8,29.75,NNW,348,4.0,8.0,88,0.06,,,0.06,Cumulus v1.9.2,2013-01-30 05:48:00,
2013-01-29 23:53:00,60.2,57.0,29.76,NNW,345,6.0,11.0,89,0.06,,,0.06,VWS V14.01,2013-01-30 05:53:00,
2013-01-29 23:58:00,60.1,56.8,29.75,NNW,345,4.0,11.0,89,0.06,,,0.06,VWS V14.01,2013-01-30 05:58:00,